createdAt,value
2018-09-17T00:03:51.737Z,3.50
2018-09-17T00:08:45.010Z,3.42
2018-09-17T00:13:38.252Z,4.35
2018-09-17T00:18:31.489Z,3.30
2018-09-17T00:23:24.741Z,3.65
2018-09-17T00:28:18.021Z,4.10
2018-09-17T00:33:11.272Z,3.90
2018-09-17T00:38:04.475Z,3.80
2018-09-17T00:42:57.740Z,3.40
2018-09-17T00:47:51.028Z,3.90
2018-09-17T00:52:44.373Z,4.03
2018-09-17T00:57:37.671Z,4.55
2018-09-17T01:02:30.936Z,3.65
2018-09-17T01:07:24.182Z,3.98
2018-09-17T01:12:17.420Z,3.90
2018-09-17T01:17:10.658Z,3.60
2018-09-17T01:22:04.579Z,3.90
2018-09-17T01:26:57.857Z,4.22
2018-09-17T01:31:51.089Z,4.12
2018-09-17T01:36:44.343Z,4.08
2018-09-17T01:41:37.577Z,4.10
2018-09-17T01:46:30.775Z,4.03
2018-09-17T01:51:24.718Z,4.35
2018-09-17T01:56:18.000Z,4.03
2018-09-17T02:01:11.207Z,4.35
2018-09-17T02:06:05.670Z,4.22
2018-09-17T02:10:58.887Z,4.35
2018-09-17T02:15:52.122Z,4.17
2018-09-17T02:20:45.373Z,4.65
2018-09-17T02:25:38.699Z,4.35
2018-09-17T02:30:31.938Z,4.40
2018-09-17T02:35:25.197Z,4.22
2018-09-17T02:40:18.455Z,4.45
2018-09-17T02:45:11.987Z,4.20
2018-09-17T02:50:06.215Z,4.35
2018-09-17T02:54:59.453Z,4.75
2018-09-17T02:59:52.681Z,4.70
2018-09-17T03:04:45.879Z,5.12
2018-09-17T03:09:39.088Z,4.97
2018-09-17T03:14:33.383Z,5.40
2018-09-17T03:19:26.660Z,4.60
2018-09-17T03:24:19.922Z,4.90
2018-09-17T03:29:13.198Z,4.77
2018-09-17T03:34:06.447Z,4.50
2018-09-17T03:38:59.673Z,4.53
2018-09-17T03:43:52.929Z,4.87
2018-09-17T03:48:46.407Z,4.40
2018-09-17T03:53:40.173Z,4.53
2018-09-17T03:58:33.371Z,4.70
2018-09-17T04:03:26.618Z,5.03
2018-09-17T04:08:19.959Z,5.00
2018-09-17T04:13:13.288Z,4.75
2018-09-17T04:18:06.558Z,4.72
2018-09-17T04:22:59.796Z,4.85
2018-09-17T04:27:53.008Z,4.77
2018-09-17T04:32:46.248Z,5.03
2018-09-17T04:37:40.011Z,5.12
2018-09-17T04:42:33.350Z,4.83
2018-09-17T04:47:26.575Z,5.42
2018-09-17T04:52:19.829Z,5.10
2018-09-17T04:57:13.149Z,5.37
2018-09-17T05:02:06.408Z,5.65
2018-09-17T05:06:59.644Z,5.87
2018-09-17T05:11:52.896Z,6.17
2018-09-17T05:16:46.179Z,5.62
2018-09-17T05:21:39.428Z,5.97
2018-09-17T05:26:32.646Z,5.75
2018-09-17T05:31:25.893Z,6.08
2018-09-17T05:36:19.180Z,6.22
2018-09-17T05:41:12.412Z,5.65
2018-09-17T05:46:05.706Z,6.10
2018-09-17T05:50:58.912Z,5.97
2018-09-17T05:55:52.134Z,5.70
2018-09-17T06:00:45.384Z,6.25
2018-09-17T06:05:38.695Z,5.58
2018-09-17T06:10:31.922Z,6.22
2018-09-17T06:15:25.180Z,5.70
2018-09-17T06:20:18.415Z,5.87
2018-09-17T06:25:11.667Z,5.35
2018-09-17T06:30:05.781Z,6.25
2018-09-17T06:34:59.012Z,5.60
2018-09-17T06:39:52.296Z,5.83
2018-09-17T06:44:45.566Z,5.75
2018-09-17T06:49:38.905Z,5.40
2018-09-17T06:54:32.140Z,5.37
2018-09-17T06:59:25.489Z,5.10
2018-09-17T07:04:18.744Z,5.25
2018-09-17T07:09:12.941Z,5.15
2018-09-17T07:14:06.276Z,5.12
2018-09-17T07:18:59.511Z,5.30
2018-09-17T07:23:52.755Z,4.90
2018-09-17T07:28:46.026Z,4.70
2018-09-17T07:33:39.239Z,5.05
2018-09-17T07:38:32.493Z,4.80
2018-09-17T07:43:25.854Z,5.25
2018-09-17T07:48:19.121Z,5.22
2018-09-17T07:53:12.387Z,4.97
2018-09-17T07:58:05.989Z,5.22
2018-09-17T08:02:59.224Z,5.55
2018-09-17T08:07:52.493Z,4.95
2018-09-17T08:12:45.719Z,5.12
2018-09-17T08:17:38.991Z,5.03
2018-09-17T08:22:32.271Z,5.17
2018-09-17T08:27:25.568Z,4.72
2018-09-17T08:32:18.839Z,4.10
2018-09-17T08:37:12.078Z,4.72
2018-09-17T08:42:05.363Z,4.97
2018-09-17T08:46:58.599Z,4.72
2018-09-17T08:51:52.163Z,3.77
2018-09-17T08:56:54.941Z,3.65
2018-09-17T09:02:04.593Z,3.30
2018-09-17T09:07:03.384Z,3.15
2018-09-17T09:12:00.055Z,3.30
2018-09-17T09:16:53.446Z,3.47
2018-09-17T09:21:46.713Z,3.47
2018-09-17T09:26:39.959Z,2.87
2018-09-17T09:31:33.250Z,3.50
2018-09-17T09:36:26.501Z,3.50
2018-09-17T09:41:19.763Z,2.83
2018-09-17T09:46:13.028Z,3.15
2018-09-17T09:51:06.277Z,3.00
2018-09-17T09:55:59.491Z,2.80
2018-09-17T10:00:58.895Z,2.92
2018-09-17T10:05:52.152Z,2.55
2018-09-17T10:10:51.713Z,2.25
2018-09-17T10:15:53.748Z,2.50
2018-09-17T10:20:47.013Z,2.52
2018-09-17T10:25:40.326Z,2.50
2018-09-17T10:30:33.580Z,2.60
2018-09-17T10:35:26.848Z,2.30
2018-09-17T10:40:20.275Z,1.92
2018-09-17T10:45:13.519Z,2.52
2018-09-17T10:50:06.934Z,2.62
2018-09-17T10:55:00.173Z,2.17
2018-09-17T10:59:53.435Z,2.22
2018-09-17T11:04:46.679Z,1.90
2018-09-17T11:09:40.013Z,2.15
2018-09-17T11:14:33.194Z,2.20
2018-09-17T11:19:26.420Z,2.10
2018-09-17T11:24:19.686Z,2.47
2018-09-17T11:29:12.913Z,2.30
2018-09-17T11:34:06.285Z,2.40
2018-09-17T11:38:59.598Z,2.42
2018-09-17T11:43:52.812Z,2.30
2018-09-17T11:48:46.141Z,2.52
2018-09-17T11:53:39.391Z,2.42
2018-09-17T11:58:32.659Z,2.00
2018-09-17T12:03:31.571Z,2.20
2018-09-17T12:08:24.874Z,2.30
2018-09-17T12:13:18.103Z,2.40
2018-09-17T12:18:12.322Z,2.27
2018-09-17T12:23:06.201Z,1.70
2018-09-17T12:27:59.900Z,2.30
2018-09-17T12:32:53.189Z,2.45
2018-09-17T12:37:46.475Z,2.20
2018-09-17T12:42:39.742Z,2.22
2018-09-17T12:47:33.017Z,2.33
2018-09-17T12:52:26.293Z,2.10
2018-09-17T12:57:19.569Z,2.33
2018-09-17T13:02:13.402Z,2.45
2018-09-17T13:07:06.720Z,2.35
2018-09-17T13:12:00.046Z,2.12
2018-09-17T13:16:53.283Z,2.20
2018-09-17T13:21:46.507Z,2.25
2018-09-17T13:26:39.782Z,2.30
2018-09-17T13:31:33.399Z,2.65
2018-09-17T13:36:26.676Z,2.27
2018-09-17T13:41:20.264Z,2.50
2018-09-17T13:46:15.580Z,1.90
2018-09-17T13:51:08.962Z,2.30
2018-09-17T13:56:02.508Z,1.92
2018-09-17T14:00:55.778Z,2.00
2018-09-17T14:05:49.030Z,2.50
2018-09-17T14:10:42.276Z,2.45
2018-09-17T14:15:35.509Z,2.67
2018-09-17T14:20:28.795Z,2.37
2018-09-17T14:25:22.004Z,2.00
2018-09-17T14:30:15.238Z,2.40
2018-09-17T14:35:08.849Z,2.20
2018-09-17T14:40:02.142Z,2.00
2018-09-17T14:44:55.454Z,2.08
2018-09-17T14:49:48.706Z,2.17
2018-09-17T14:54:42.027Z,2.35
2018-09-17T14:59:35.251Z,2.33
2018-09-17T15:04:28.639Z,2.37
2018-09-17T15:09:21.815Z,2.47
2018-09-17T15:14:15.205Z,2.20
2018-09-17T15:19:08.403Z,2.00
2018-09-17T15:24:01.703Z,2.15
2018-09-17T15:28:54.929Z,2.22
2018-09-17T15:33:48.201Z,1.92
2018-09-17T15:38:41.483Z,2.25
2018-09-17T15:43:34.732Z,1.98
2018-09-17T15:48:28.705Z,2.30
2018-09-17T15:53:21.929Z,2.17
2018-09-17T15:58:15.295Z,2.75
2018-09-17T16:03:08.470Z,2.60
2018-09-17T16:08:01.716Z,2.52
2018-09-17T16:12:55.023Z,2.10
2018-09-17T16:17:48.239Z,3.15
2018-09-17T16:22:41.484Z,2.37
2018-09-17T16:27:34.771Z,2.70
2018-09-17T16:32:28.046Z,2.65
2018-09-17T16:37:21.264Z,2.42
2018-09-17T16:42:14.555Z,3.08
2018-09-17T16:47:07.923Z,3.12
2018-09-17T16:52:01.367Z,3.67
2018-09-17T16:56:54.708Z,3.60
2018-09-17T17:01:48.058Z,2.47
2018-09-17T17:06:41.418Z,3.02
2018-09-17T17:11:34.750Z,3.35
2018-09-17T17:16:28.106Z,3.47
2018-09-17T17:21:21.357Z,3.62
2018-09-17T17:26:14.576Z,3.52
2018-09-17T17:31:07.854Z,3.90
2018-09-17T17:36:01.177Z,4.45
2018-09-17T17:40:54.386Z,4.30
2018-09-17T17:45:47.759Z,4.17
2018-09-17T17:50:41.609Z,4.85
2018-09-17T17:55:34.874Z,3.70
2018-09-17T18:00:28.242Z,3.27
2018-09-17T18:05:21.474Z,5.45
2018-09-17T18:10:14.725Z,4.50
2018-09-17T18:15:08.001Z,4.67
2018-09-17T18:20:01.275Z,4.40
2018-09-17T18:24:54.583Z,4.70
2018-09-17T18:29:47.817Z,4.95
2018-09-17T18:34:41.070Z,5.03
2018-09-17T18:39:34.418Z,5.05
2018-09-17T18:44:27.516Z,4.90
2018-09-17T18:49:20.738Z,4.60
2018-09-17T18:54:14.011Z,5.10
2018-09-17T18:59:07.263Z,6.03
2018-09-17T19:04:00.562Z,5.75
2018-09-17T19:08:53.906Z,5.72
2018-09-17T19:13:52.692Z,4.72
2018-09-17T19:18:45.996Z,4.90
2018-09-17T19:23:44.819Z,3.72
2018-09-17T19:28:43.770Z,3.85
2018-09-17T19:33:36.993Z,3.58
2018-09-17T19:38:36.019Z,3.40
2018-09-17T19:43:29.262Z,4.17
2018-09-17T19:48:22.527Z,3.92
2018-09-17T19:53:15.826Z,3.90
2018-09-17T19:58:14.585Z,4.20
2018-09-17T20:03:07.875Z,3.75
2018-09-17T20:08:01.048Z,3.95
2018-09-17T20:12:54.258Z,4.00
2018-09-17T20:17:47.514Z,3.80
2018-09-17T20:22:40.766Z,4.20
2018-09-17T20:27:34.039Z,4.20
2018-09-17T20:32:28.249Z,5.00
2018-09-17T20:37:21.581Z,3.47
2018-09-17T20:42:14.782Z,3.40
2018-09-17T20:47:08.045Z,3.33
2018-09-17T20:52:01.310Z,3.22
2018-09-17T20:56:54.565Z,3.33
2018-09-17T21:01:47.914Z,2.90
2018-09-17T21:06:41.146Z,3.62
2018-09-17T21:11:34.402Z,3.37
2018-09-17T21:16:27.691Z,3.62
2018-09-17T21:21:20.984Z,3.65
2018-09-17T21:26:14.235Z,3.55
2018-09-17T21:31:07.502Z,3.33
2018-09-17T21:36:00.800Z,3.20
2018-09-17T21:40:54.093Z,3.10
2018-09-17T21:45:47.989Z,3.33
2018-09-17T21:50:58.246Z,3.52
2018-09-17T21:55:51.556Z,3.22
2018-09-17T22:00:50.436Z,3.47
2018-09-17T22:05:43.713Z,3.37
2018-09-17T22:10:37.134Z,3.70
2018-09-17T22:15:31.283Z,3.50
2018-09-17T22:20:26.300Z,3.83
2018-09-17T22:25:21.186Z,3.92
2018-09-17T22:30:18.301Z,4.10
2018-09-17T22:35:39.205Z,3.40
2018-09-17T22:40:32.500Z,3.62
2018-09-17T22:45:26.421Z,3.47
2018-09-17T22:50:19.719Z,3.40
2018-09-17T22:55:13.075Z,3.30
2018-09-17T23:00:06.464Z,3.55
2018-09-17T23:04:59.787Z,3.80
2018-09-17T23:09:53.173Z,3.58
2018-09-17T23:14:46.555Z,3.35
2018-09-17T23:19:41.286Z,3.55
2018-09-17T23:24:34.578Z,3.92
2018-09-17T23:29:27.816Z,3.52
2018-09-17T23:34:21.352Z,3.60
2018-09-17T23:39:24.455Z,3.67
2018-09-17T23:44:17.774Z,3.57
2018-09-17T23:49:11.153Z,3.70
2018-09-17T23:54:18.331Z,3.50
2018-09-17T23:59:12.454Z,3.70
